sensor_id;sensor_type;location;lat;lon;timestamp;P1;durP1;ratioP1;P2;durP2;ratioP2
34765;SDS011;20984;43.508;1.504;2022-11-02T00:00:26;19.10;;;5.77;;
34765;SDS011;20984;43.508;1.504;2022-11-02T00:02:53;10.02;;;4.88;;
34765;SDS011;20984;43.508;1.504;2022-11-02T00:05:19;14.25;;;4.88;;
34765;SDS011;20984;43.508;1.504;2022-11-02T00:07:52;14.55;;;5.45;;
34765;SDS011;20984;43.508;1.504;2022-11-02T00:10:19;12.40;;;4.85;;
34765;SDS011;20984;43.508;1.504;2022-11-02T00:12:47;10.45;;;5.28;;
34765;SDS011;20984;43.508;1.504;2022-11-02T00:15:13;10.65;;;5.80;;
34765;SDS011;20984;43.508;1.504;2022-11-02T00:17:39;12.15;;;5.40;;
34765;SDS011;20984;43.508;1.504;2022-11-02T00:20:09;11.77;;;5.03;;
34765;SDS011;20984;43.508;1.504;2022-11-02T00:22:36;9.88;;;4.90;;
34765;SDS011;20984;43.508;1.504;2022-11-02T00:25:03;13.65;;;5.10;;
34765;SDS011;20984;43.508;1.504;2022-11-02T00:27:31;12.23;;;4.95;;
34765;SDS011;20984;43.508;1.504;2022-11-02T00:29:59;10.25;;;4.47;;
34765;SDS011;20984;43.508;1.504;2022-11-02T00:32:25;12.98;;;5.13;;
34765;SDS011;20984;43.508;1.504;2022-11-02T00:34:51;12.38;;;4.38;;
34765;SDS011;20984;43.508;1.504;2022-11-02T00:37:17;14.45;;;4.95;;
34765;SDS011;20984;43.508;1.504;2022-11-02T00:39:43;11.95;;;4.65;;
34765;SDS011;20984;43.508;1.504;2022-11-02T00:42:09;10.27;;;4.90;;
34765;SDS011;20984;43.508;1.504;2022-11-02T00:44:35;10.77;;;5.65;;
34765;SDS011;20984;43.508;1.504;2022-11-02T00:47:01;12.25;;;5.40;;
34765;SDS011;20984;43.508;1.504;2022-11-02T00:49:27;13.48;;;5.15;;
34765;SDS011;20984;43.508;1.504;2022-11-02T00:51:52;14.70;;;4.97;;
34765;SDS011;20984;43.508;1.504;2022-11-02T00:54:18;13.32;;;4.93;;
34765;SDS011;20984;43.508;1.504;2022-11-02T00:56:44;10.45;;;4.35;;
34765;SDS011;20984;43.508;1.504;2022-11-02T00:59:10;15.80;;;4.68;;
34765;SDS011;20984;43.508;1.504;2022-11-02T01:01:36;25.63;;;5.68;;
34765;SDS011;20984;43.508;1.504;2022-11-02T01:04:01;13.02;;;4.13;;
34765;SDS011;20984;43.508;1.504;2022-11-02T01:06:28;12.18;;;4.65;;
34765;SDS011;20984;43.508;1.504;2022-11-02T01:08:54;14.35;;;5.20;;
34765;SDS011;20984;43.508;1.504;2022-11-02T01:11:20;17.58;;;5.00;;
34765;SDS011;20984;43.508;1.504;2022-11-02T01:13:48;11.02;;;5.57;;
34765;SDS011;20984;43.508;1.504;2022-11-02T01:16:16;10.52;;;5.22;;
34765;SDS011;20984;43.508;1.504;2022-11-02T01:18:42;14.07;;;5.15;;
34765;SDS011;20984;43.508;1.504;2022-11-02T01:21:08;9.98;;;5.32;;
34765;SDS011;20984;43.508;1.504;2022-11-02T01:23:34;12.13;;;5.15;;
34765;SDS011;20984;43.508;1.504;2022-11-02T01:26:02;14.63;;;4.80;;
34765;SDS011;20984;43.508;1.504;2022-11-02T01:28:29;10.02;;;5.57;;
34765;SDS011;20984;43.508;1.504;2022-11-02T01:30:56;12.05;;;4.68;;
34765;SDS011;20984;43.508;1.504;2022-11-02T01:33:23;8.75;;;5.05;;
34765;SDS011;20984;43.508;1.504;2022-11-02T01:35:49;13.40;;;4.13;;
34765;SDS011;20984;43.508;1.504;2022-11-02T01:38:15;12.32;;;5.28;;
34765;SDS011;20984;43.508;1.504;2022-11-02T01:40:41;11.52;;;4.10;;
34765;SDS011;20984;43.508;1.504;2022-11-02T01:48:27;10.95;;;3.65;;
34765;SDS011;20984;43.508;1.504;2022-11-02T01:50:59;9.32;;;3.80;;
34765;SDS011;20984;43.508;1.504;2022-11-02T01:53:29;12.48;;;3.95;;
34765;SDS011;20984;43.508;1.504;2022-11-02T01:55:57;16.70;;;4.38;;
34765;SDS011;20984;43.508;1.504;2022-11-02T01:58:25;18.42;;;5.05;;
34765;SDS011;20984;43.508;1.504;2022-11-02T02:00:51;13.25;;;4.53;;
34765;SDS011;20984;43.508;1.504;2022-11-02T02:03:18;11.43;;;3.90;;
34765;SDS011;20984;43.508;1.504;2022-11-02T02:05:46;9.95;;;4.32;;
34765;SDS011;20984;43.508;1.504;2022-11-02T02:08:18;8.38;;;4.90;;
34765;SDS011;20984;43.508;1.504;2022-11-02T02:10:47;11.25;;;3.72;;
34765;SDS011;20984;43.508;1.504;2022-11-02T02:13:13;22.38;;;6.13;;
34765;SDS011;20984;43.508;1.504;2022-11-02T02:18:47;10.82;;;3.65;;
34765;SDS011;20984;43.508;1.504;2022-11-02T02:24:13;17.50;;;4.93;;
34765;SDS011;20984;43.508;1.504;2022-11-02T02:27:14;16.52;;;4.88;;
34765;SDS011;20984;43.508;1.504;2022-11-02T02:30:08;12.95;;;4.63;;
34765;SDS011;20984;43.508;1.504;2022-11-02T02:32:40;10.95;;;4.05;;
34765;SDS011;20984;43.508;1.504;2022-11-02T02:35:31;13.60;;;4.95;;
34765;SDS011;20984;43.508;1.504;2022-11-02T02:38:21;10.95;;;3.55;;
34765;SDS011;20984;43.508;1.504;2022-11-02T02:40:59;10.10;;;4.22;;
34765;SDS011;20984;43.508;1.504;2022-11-02T02:43:39;18.80;;;5.25;;
34765;SDS011;20984;43.508;1.504;2022-11-02T02:46:38;10.50;;;4.38;;
34765;SDS011;20984;43.508;1.504;2022-11-02T02:49:10;16.10;;;4.88;;
34765;SDS011;20984;43.508;1.504;2022-11-02T02:51:39;6.35;;;3.90;;
34765;SDS011;20984;43.508;1.504;2022-11-02T02:54:10;19.58;;;4.70;;
34765;SDS011;20984;43.508;1.504;2022-11-02T02:56:40;11.40;;;4.07;;
34765;SDS011;20984;43.508;1.504;2022-11-02T03:02:16;16.25;;;4.78;;
34765;SDS011;20984;43.508;1.504;2022-11-02T03:04:52;14.38;;;4.75;;
34765;SDS011;20984;43.508;1.504;2022-11-02T03:07:28;9.90;;;4.70;;
34765;SDS011;20984;43.508;1.504;2022-11-02T03:15:35;10.05;;;4.18;;
34765;SDS011;20984;43.508;1.504;2022-11-02T03:23:17;12.80;;;4.40;;
34765;SDS011;20984;43.508;1.504;2022-11-02T03:26:04;12.68;;;4.10;;
34765;SDS011;20984;43.508;1.504;2022-11-02T03:28:41;13.70;;;4.00;;
34765;SDS011;20984;43.508;1.504;2022-11-02T03:31:26;10.57;;;3.58;;
34765;SDS011;20984;43.508;1.504;2022-11-02T03:36:49;22.13;;;5.85;;
34765;SDS011;20984;43.508;1.504;2022-11-02T03:39:19;9.90;;;3.85;;
34765;SDS011;20984;43.508;1.504;2022-11-02T03:41:52;12.43;;;3.95;;
34765;SDS011;20984;43.508;1.504;2022-11-02T03:44:21;20.60;;;4.38;;
34765;SDS011;20984;43.508;1.504;2022-11-02T03:46:49;16.25;;;5.95;;
34765;SDS011;20984;43.508;1.504;2022-11-02T03:49:18;14.40;;;4.85;;
34765;SDS011;20984;43.508;1.504;2022-11-02T03:51:46;17.42;;;4.57;;
34765;SDS011;20984;43.508;1.504;2022-11-02T03:56:52;19.85;;;4.30;;
34765;SDS011;20984;43.508;1.504;2022-11-02T03:59:22;16.30;;;4.80;;
34765;SDS011;20984;43.508;1.504;2022-11-02T04:01:49;15.10;;;4.13;;
34765;SDS011;20984;43.508;1.504;2022-11-02T04:04:16;15.52;;;4.78;;
34765;SDS011;20984;43.508;1.504;2022-11-02T04:06:42;13.88;;;3.88;;
34765;SDS011;20984;43.508;1.504;2022-11-02T04:09:11;13.40;;;3.70;;
34765;SDS011;20984;43.508;1.504;2022-11-02T04:11:37;9.88;;;4.53;;
34765;SDS011;20984;43.508;1.504;2022-11-02T04:14:21;8.57;;;3.45;;
34765;SDS011;20984;43.508;1.504;2022-11-02T04:17:02;20.08;;;4.20;;
34765;SDS011;20984;43.508;1.504;2022-11-02T04:19:47;12.55;;;4.35;;
34765;SDS011;20984;43.508;1.504;2022-11-02T04:22:14;11.85;;;4.07;;
34765;SDS011;20984;43.508;1.504;2022-11-02T04:24:58;14.35;;;3.60;;
34765;SDS011;20984;43.508;1.504;2022-11-02T04:27:43;15.20;;;4.95;;
34765;SDS011;20984;43.508;1.504;2022-11-02T04:30:12;18.75;;;4.18;;
34765;SDS011;20984;43.508;1.504;2022-11-02T04:32:42;21.98;;;4.30;;
34765;SDS011;20984;43.508;1.504;2022-11-02T04:35:28;17.33;;;3.88;;
34765;SDS011;20984;43.508;1.504;2022-11-02T04:37:55;14.25;;;4.30;;
34765;SDS011;20984;43.508;1.504;2022-11-02T04:40:40;14.88;;;4.25;;
34765;SDS011;20984;43.508;1.504;2022-11-02T04:43:06;17.63;;;5.18;;
34765;SDS011;20984;43.508;1.504;2022-11-02T04:45:32;11.05;;;4.10;;
34765;SDS011;20984;43.508;1.504;2022-11-02T04:47:58;15.75;;;4.05;;
34765;SDS011;20984;43.508;1.504;2022-11-02T04:50:25;14.57;;;4.05;;
34765;SDS011;20984;43.508;1.504;2022-11-02T04:52:58;17.83;;;3.92;;
34765;SDS011;20984;43.508;1.504;2022-11-02T04:55:25;10.68;;;4.18;;
34765;SDS011;20984;43.508;1.504;2022-11-02T04:57:51;17.85;;;4.53;;
34765;SDS011;20984;43.508;1.504;2022-11-02T05:00:18;18.95;;;4.68;;
34765;SDS011;20984;43.508;1.504;2022-11-02T05:02:48;15.07;;;4.97;;
34765;SDS011;20984;43.508;1.504;2022-11-02T05:05:15;17.52;;;4.57;;
34765;SDS011;20984;43.508;1.504;2022-11-02T05:07:41;13.70;;;4.75;;
34765;SDS011;20984;43.508;1.504;2022-11-02T05:10:08;10.65;;;3.85;;
34765;SDS011;20984;43.508;1.504;2022-11-02T05:12:34;16.88;;;4.68;;
34765;SDS011;20984;43.508;1.504;2022-11-02T05:15:00;12.98;;;4.22;;
34765;SDS011;20984;43.508;1.504;2022-11-02T05:17:26;20.63;;;5.63;;
34765;SDS011;20984;43.508;1.504;2022-11-02T05:19:51;21.70;;;5.07;;
34765;SDS011;20984;43.508;1.504;2022-11-02T05:22:17;21.30;;;4.57;;
34765;SDS011;20984;43.508;1.504;2022-11-02T05:24:45;15.13;;;4.10;;
34765;SDS011;20984;43.508;1.504;2022-11-02T05:27:11;20.92;;;5.05;;
34765;SDS011;20984;43.508;1.504;2022-11-02T05:29:36;12.27;;;4.00;;
34765;SDS011;20984;43.508;1.504;2022-11-02T05:32:02;13.07;;;3.45;;
34765;SDS011;20984;43.508;1.504;2022-11-02T05:34:28;21.17;;;4.85;;
34765;SDS011;20984;43.508;1.504;2022-11-02T05:36:54;21.00;;;4.97;;
34765;SDS011;20984;43.508;1.504;2022-11-02T05:39:20;18.15;;;4.75;;
34765;SDS011;20984;43.508;1.504;2022-11-02T05:41:46;19.92;;;4.22;;
34765;SDS011;20984;43.508;1.504;2022-11-02T05:44:11;10.15;;;4.05;;
34765;SDS011;20984;43.508;1.504;2022-11-02T05:46:37;26.02;;;5.35;;
34765;SDS011;20984;43.508;1.504;2022-11-02T05:49:03;16.80;;;4.93;;
34765;SDS011;20984;43.508;1.504;2022-11-02T05:51:29;14.15;;;4.22;;
34765;SDS011;20984;43.508;1.504;2022-11-02T05:53:55;11.88;;;4.22;;
34765;SDS011;20984;43.508;1.504;2022-11-02T05:56:21;14.00;;;5.45;;
34765;SDS011;20984;43.508;1.504;2022-11-02T05:58:46;20.73;;;4.85;;
34765;SDS011;20984;43.508;1.504;2022-11-02T06:01:12;10.95;;;4.07;;
34765;SDS011;20984;43.508;1.504;2022-11-02T06:03:38;17.23;;;5.65;;
34765;SDS011;20984;43.508;1.504;2022-11-02T06:06:05;15.95;;;4.32;;
34765;SDS011;20984;43.508;1.504;2022-11-02T06:08:32;16.20;;;4.30;;
34765;SDS011;20984;43.508;1.504;2022-11-02T06:11:05;22.85;;;4.05;;
34765;SDS011;20984;43.508;1.504;2022-11-02T06:13:36;14.20;;;4.25;;
34765;SDS011;20984;43.508;1.504;2022-11-02T06:16:04;18.30;;;4.22;;
34765;SDS011;20984;43.508;1.504;2022-11-02T06:18:35;24.27;;;4.72;;
34765;SDS011;20984;43.508;1.504;2022-11-02T06:21:02;16.48;;;4.70;;
34765;SDS011;20984;43.508;1.504;2022-11-02T06:23:28;16.85;;;4.15;;
34765;SDS011;20984;43.508;1.504;2022-11-02T06:25:55;17.58;;;4.88;;
34765;SDS011;20984;43.508;1.504;2022-11-02T06:28:23;14.70;;;3.88;;
34765;SDS011;20984;43.508;1.504;2022-11-02T06:30:49;11.95;;;3.92;;
34765;SDS011;20984;43.508;1.504;2022-11-02T06:33:16;15.80;;;4.97;;
34765;SDS011;20984;43.508;1.504;2022-11-02T06:35:46;19.45;;;4.38;;
34765;SDS011;20984;43.508;1.504;2022-11-02T06:38:14;16.65;;;4.40;;
34765;SDS011;20984;43.508;1.504;2022-11-02T06:40:40;14.05;;;4.63;;
34765;SDS011;20984;43.508;1.504;2022-11-02T06:43:06;21.30;;;4.78;;
34765;SDS011;20984;43.508;1.504;2022-11-02T06:45:32;12.00;;;4.75;;
34765;SDS011;20984;43.508;1.504;2022-11-02T06:47:58;10.45;;;4.47;;
34765;SDS011;20984;43.508;1.504;2022-11-02T06:50:24;9.95;;;3.63;;
34765;SDS011;20984;43.508;1.504;2022-11-02T06:52:50;13.10;;;4.05;;
34765;SDS011;20984;43.508;1.504;2022-11-02T06:55:17;13.23;;;5.22;;
34765;SDS011;20984;43.508;1.504;2022-11-02T06:57:43;19.95;;;4.43;;
34765;SDS011;20984;43.508;1.504;2022-11-02T07:00:13;21.15;;;5.53;;
34765;SDS011;20984;43.508;1.504;2022-11-02T07:02:43;16.30;;;4.47;;
34765;SDS011;20984;43.508;1.504;2022-11-02T07:05:09;15.32;;;4.70;;
34765;SDS011;20984;43.508;1.504;2022-11-02T07:07:35;12.02;;;5.03;;
34765;SDS011;20984;43.508;1.504;2022-11-02T07:10:01;22.83;;;5.03;;
34765;SDS011;20984;43.508;1.504;2022-11-02T07:12:29;12.70;;;4.07;;
34765;SDS011;20984;43.508;1.504;2022-11-02T07:14:56;16.52;;;4.30;;
34765;SDS011;20984;43.508;1.504;2022-11-02T07:17:22;10.57;;;3.75;;
34765;SDS011;20984;43.508;1.504;2022-11-02T07:19:47;14.32;;;3.92;;
34765;SDS011;20984;43.508;1.504;2022-11-02T07:22:13;12.02;;;4.20;;
34765;SDS011;20984;43.508;1.504;2022-11-02T07:24:39;16.75;;;4.63;;
34765;SDS011;20984;43.508;1.504;2022-11-02T07:27:05;22.45;;;4.25;;
34765;SDS011;20984;43.508;1.504;2022-11-02T07:29:31;20.33;;;6.40;;
34765;SDS011;20984;43.508;1.504;2022-11-02T07:31:56;16.55;;;4.82;;
34765;SDS011;20984;43.508;1.504;2022-11-02T07:34:22;15.52;;;4.28;;
34765;SDS011;20984;43.508;1.504;2022-11-02T07:36:48;12.50;;;3.85;;
34765;SDS011;20984;43.508;1.504;2022-11-02T07:39:14;19.77;;;4.78;;
34765;SDS011;20984;43.508;1.504;2022-11-02T07:41:40;16.48;;;4.15;;
34765;SDS011;20984;43.508;1.504;2022-11-02T07:44:06;19.70;;;5.10;;
34765;SDS011;20984;43.508;1.504;2022-11-02T07:46:31;19.00;;;4.13;;
34765;SDS011;20984;43.508;1.504;2022-11-02T07:48:57;13.18;;;4.63;;
34765;SDS011;20984;43.508;1.504;2022-11-02T07:51:23;13.30;;;4.18;;
34765;SDS011;20984;43.508;1.504;2022-11-02T07:53:49;18.98;;;4.30;;
34765;SDS011;20984;43.508;1.504;2022-11-02T07:56:15;18.48;;;4.40;;
34765;SDS011;20984;43.508;1.504;2022-11-02T07:58:40;15.00;;;4.13;;
34765;SDS011;20984;43.508;1.504;2022-11-02T08:01:06;22.25;;;4.55;;
34765;SDS011;20984;43.508;1.504;2022-11-02T08:03:32;13.80;;;4.60;;
34765;SDS011;20984;43.508;1.504;2022-11-02T08:06:01;16.38;;;4.28;;
34765;SDS011;20984;43.508;1.504;2022-11-02T08:08:27;19.15;;;4.88;;
34765;SDS011;20984;43.508;1.504;2022-11-02T08:10:53;18.63;;;4.63;;
34765;SDS011;20984;43.508;1.504;2022-11-02T08:13:19;14.30;;;5.25;;
34765;SDS011;20984;43.508;1.504;2022-11-02T08:15:48;12.95;;;4.50;;
34765;SDS011;20984;43.508;1.504;2022-11-02T08:18:15;15.30;;;5.22;;
34765;SDS011;20984;43.508;1.504;2022-11-02T08:20:43;13.15;;;4.95;;
34765;SDS011;20984;43.508;1.504;2022-11-02T08:23:12;14.73;;;5.20;;
34765;SDS011;20984;43.508;1.504;2022-11-02T08:25:40;17.23;;;5.78;;
34765;SDS011;20984;43.508;1.504;2022-11-02T08:28:07;16.15;;;5.15;;
34765;SDS011;20984;43.508;1.504;2022-11-02T08:30:37;17.38;;;4.25;;
34765;SDS011;20984;43.508;1.504;2022-11-02T08:33:06;21.45;;;5.00;;
34765;SDS011;20984;43.508;1.504;2022-11-02T08:35:37;11.75;;;4.55;;
34765;SDS011;20984;43.508;1.504;2022-11-02T08:38:04;17.27;;;4.88;;
34765;SDS011;20984;43.508;1.504;2022-11-02T08:40:30;13.57;;;3.83;;
34765;SDS011;20984;43.508;1.504;2022-11-02T08:42:57;12.63;;;4.47;;
34765;SDS011;20984;43.508;1.504;2022-11-02T08:45:24;25.48;;;5.47;;
34765;SDS011;20984;43.508;1.504;2022-11-02T08:47:50;11.85;;;3.88;;
34765;SDS011;20984;43.508;1.504;2022-11-02T08:50:16;15.70;;;3.55;;
34765;SDS011;20984;43.508;1.504;2022-11-02T08:52:42;18.23;;;3.88;;
34765;SDS011;20984;43.508;1.504;2022-11-02T08:55:07;10.25;;;3.05;;
34765;SDS011;20984;43.508;1.504;2022-11-02T08:57:43;10.65;;;4.00;;
34765;SDS011;20984;43.508;1.504;2022-11-02T09:00:21;11.13;;;4.15;;
34765;SDS011;20984;43.508;1.504;2022-11-02T09:03:05;15.40;;;4.93;;
34765;SDS011;20984;43.508;1.504;2022-11-02T09:05:33;12.40;;;3.90;;
34765;SDS011;20984;43.508;1.504;2022-11-02T09:08:02;10.13;;;3.22;;
34765;SDS011;20984;43.508;1.504;2022-11-02T09:10:30;19.05;;;4.20;;
34765;SDS011;20984;43.508;1.504;2022-11-02T09:12:57;18.55;;;4.63;;
34765;SDS011;20984;43.508;1.504;2022-11-02T09:15:24;17.65;;;3.17;;
34765;SDS011;20984;43.508;1.504;2022-11-02T09:17:51;12.77;;;4.15;;
34765;SDS011;20984;43.508;1.504;2022-11-02T09:20:17;19.33;;;4.22;;
34765;SDS011;20984;43.508;1.504;2022-11-02T09:22:44;16.30;;;4.43;;
34765;SDS011;20984;43.508;1.504;2022-11-02T09:25:10;12.55;;;4.20;;
34765;SDS011;20984;43.508;1.504;2022-11-02T09:27:37;14.93;;;4.13;;
34765;SDS011;20984;43.508;1.504;2022-11-02T09:30:03;14.45;;;3.80;;
34765;SDS011;20984;43.508;1.504;2022-11-02T09:32:30;17.67;;;4.47;;
34765;SDS011;20984;43.508;1.504;2022-11-02T09:34:58;15.02;;;4.20;;
34765;SDS011;20984;43.508;1.504;2022-11-02T09:37:25;20.63;;;4.82;;
34765;SDS011;20984;43.508;1.504;2022-11-02T09:39:52;17.40;;;4.35;;
34765;SDS011;20984;43.508;1.504;2022-11-02T09:42:24;9.60;;;3.42;;
34765;SDS011;20984;43.508;1.504;2022-11-02T09:44:58;14.18;;;3.65;;
34765;SDS011;20984;43.508;1.504;2022-11-02T09:47:29;12.15;;;3.67;;
34765;SDS011;20984;43.508;1.504;2022-11-02T09:50:01;14.45;;;3.53;;
34765;SDS011;20984;43.508;1.504;2022-11-02T09:52:37;9.20;;;3.25;;
34765;SDS011;20984;43.508;1.504;2022-11-02T09:55:11;13.30;;;3.78;;
34765;SDS011;20984;43.508;1.504;2022-11-02T09:57:42;14.40;;;4.55;;
34765;SDS011;20984;43.508;1.504;2022-11-02T10:00:12;14.95;;;3.83;;
34765;SDS011;20984;43.508;1.504;2022-11-02T10:05:36;11.25;;;2.88;;
34765;SDS011;20984;43.508;1.504;2022-11-02T10:08:10;18.05;;;4.05;;
34765;SDS011;20984;43.508;1.504;2022-11-02T10:14:19;8.52;;;2.65;;
34765;SDS011;20984;43.508;1.504;2022-11-02T10:17:32;10.40;;;3.22;;
34765;SDS011;20984;43.508;1.504;2022-11-02T10:19:38;10.75;;;3.85;;
34765;SDS011;20984;43.508;1.504;2022-11-02T10:22:07;11.80;;;2.95;;
34765;SDS011;20984;43.508;1.504;2022-11-02T10:24:42;8.20;;;3.15;;
34765;SDS011;20984;43.508;1.504;2022-11-02T10:27:17;12.90;;;3.83;;
34765;SDS011;20984;43.508;1.504;2022-11-02T10:29:51;15.13;;;4.32;;
34765;SDS011;20984;43.508;1.504;2022-11-02T10:32:23;11.00;;;4.00;;
34765;SDS011;20984;43.508;1.504;2022-11-02T10:34:49;12.65;;;3.22;;
34765;SDS011;20984;43.508;1.504;2022-11-02T10:37:22;14.10;;;3.63;;
34765;SDS011;20984;43.508;1.504;2022-11-02T10:42:30;15.82;;;3.58;;
34765;SDS011;20984;43.508;1.504;2022-11-02T10:50:59;11.73;;;3.57;;
34765;SDS011;20984;43.508;1.504;2022-11-02T10:53:34;9.50;;;3.22;;
34765;SDS011;20984;43.508;1.504;2022-11-02T10:58:37;11.05;;;3.50;;
34765;SDS011;20984;43.508;1.504;2022-11-02T11:01:08;9.20;;;3.00;;
34765;SDS011;20984;43.508;1.504;2022-11-02T11:03:52;11.73;;;2.63;;
34765;SDS011;20984;43.508;1.504;2022-11-02T11:06:18;6.32;;;2.88;;
34765;SDS011;20984;43.508;1.504;2022-11-02T11:08:45;14.52;;;3.20;;
34765;SDS011;20984;43.508;1.504;2022-11-02T11:13:44;10.32;;;3.15;;
34765;SDS011;20984;43.508;1.504;2022-11-02T11:16:44;10.23;;;3.00;;
34765;SDS011;20984;43.508;1.504;2022-11-02T11:19:23;8.77;;;3.67;;
34765;SDS011;20984;43.508;1.504;2022-11-02T11:21:58;10.57;;;3.20;;
34765;SDS011;20984;43.508;1.504;2022-11-02T11:24:31;9.10;;;2.92;;
34765;SDS011;20984;43.508;1.504;2022-11-02T11:27:03;10.52;;;3.63;;
34765;SDS011;20984;43.508;1.504;2022-11-02T11:29:32;8.38;;;3.95;;
34765;SDS011;20984;43.508;1.504;2022-11-02T11:32:01;8.88;;;4.10;;
34765;SDS011;20984;43.508;1.504;2022-11-02T11:34:29;13.45;;;5.68;;
34765;SDS011;20984;43.508;1.504;2022-11-02T11:37:09;12.23;;;3.85;;
34765;SDS011;20984;43.508;1.504;2022-11-02T11:39:38;9.10;;;3.20;;
34765;SDS011;20984;43.508;1.504;2022-11-02T11:42:12;7.50;;;2.33;;
34765;SDS011;20984;43.508;1.504;2022-11-02T11:44:44;8.02;;;3.65;;
34765;SDS011;20984;43.508;1.504;2022-11-02T11:47:33;6.95;;;2.78;;
34765;SDS011;20984;43.508;1.504;2022-11-02T11:50:05;8.00;;;3.22;;
34765;SDS011;20984;43.508;1.504;2022-11-02T11:52:42;8.65;;;2.50;;
34765;SDS011;20984;43.508;1.504;2022-11-02T11:55:27;7.78;;;2.83;;
34765;SDS011;20984;43.508;1.504;2022-11-02T11:58:30;9.18;;;2.50;;
34765;SDS011;20984;43.508;1.504;2022-11-02T12:03:31;4.97;;;1.98;;
34765;SDS011;20984;43.508;1.504;2022-11-02T12:11:43;7.90;;;2.40;;
34765;SDS011;20984;43.508;1.504;2022-11-02T12:16:51;7.30;;;2.60;;
34765;SDS011;20984;43.508;1.504;2022-11-02T12:22:22;10.43;;;3.55;;
34765;SDS011;20984;43.508;1.504;2022-11-02T12:25:29;13.02;;;2.88;;
34765;SDS011;20984;43.508;1.504;2022-11-02T12:42:36;7.82;;;2.90;;
34765;SDS011;20984;43.508;1.504;2022-11-02T12:53:32;12.88;;;2.60;;
34765;SDS011;20984;43.508;1.504;2022-11-02T12:56:13;9.00;;;3.22;;
34765;SDS011;20984;43.508;1.504;2022-11-02T12:58:43;8.75;;;3.25;;
34765;SDS011;20984;43.508;1.504;2022-11-02T13:01:23;10.60;;;2.80;;
34765;SDS011;20984;43.508;1.504;2022-11-02T13:06:29;8.25;;;2.33;;
34765;SDS011;20984;43.508;1.504;2022-11-02T13:09:03;5.97;;;2.00;;
34765;SDS011;20984;43.508;1.504;2022-11-02T13:11:38;10.27;;;2.60;;
34765;SDS011;20984;43.508;1.504;2022-11-02T13:14:13;4.03;;;2.13;;
34765;SDS011;20984;43.508;1.504;2022-11-02T13:16:48;8.02;;;2.10;;
34765;SDS011;20984;43.508;1.504;2022-11-02T13:19:39;4.20;;;2.00;;
34765;SDS011;20984;43.508;1.504;2022-11-02T13:22:09;6.78;;;2.90;;
34765;SDS011;20984;43.508;1.504;2022-11-02T13:24:47;11.73;;;3.03;;
34765;SDS011;20984;43.508;1.504;2022-11-02T13:27:24;7.72;;;2.17;;
34765;SDS011;20984;43.508;1.504;2022-11-02T13:29:54;8.38;;;2.60;;
34765;SDS011;20984;43.508;1.504;2022-11-02T13:32:40;6.60;;;2.00;;
34765;SDS011;20984;43.508;1.504;2022-11-02T13:37:39;9.20;;;2.17;;
34765;SDS011;20984;43.508;1.504;2022-11-02T13:40:13;7.28;;;1.95;;
34765;SDS011;20984;43.508;1.504;2022-11-02T13:42:49;7.00;;;2.63;;
34765;SDS011;20984;43.508;1.504;2022-11-02T13:48:15;5.63;;;2.40;;
34765;SDS011;20984;43.508;1.504;2022-11-02T13:50:50;8.60;;;2.75;;
34765;SDS011;20984;43.508;1.504;2022-11-02T13:53:21;5.82;;;1.88;;
34765;SDS011;20984;43.508;1.504;2022-11-02T13:55:58;6.72;;;2.13;;
34765;SDS011;20984;43.508;1.504;2022-11-02T13:58:31;11.40;;;3.30;;
34765;SDS011;20984;43.508;1.504;2022-11-02T14:01:01;9.38;;;1.88;;
34765;SDS011;20984;43.508;1.504;2022-11-02T14:06:16;4.95;;;1.95;;
34765;SDS011;20984;43.508;1.504;2022-11-02T14:08:56;6.95;;;2.28;;
34765;SDS011;20984;43.508;1.504;2022-11-02T14:11:33;4.90;;;2.05;;
34765;SDS011;20984;43.508;1.504;2022-11-02T14:14:18;3.95;;;1.58;;
34765;SDS011;20984;43.508;1.504;2022-11-02T14:19:29;5.03;;;2.22;;
34765;SDS011;20984;43.508;1.504;2022-11-02T14:26:57;6.38;;;1.80;;
34765;SDS011;20984;43.508;1.504;2022-11-02T14:39:59;6.80;;;2.10;;
34765;SDS011;20984;43.508;1.504;2022-11-02T14:45:20;6.57;;;2.17;;
34765;SDS011;20984;43.508;1.504;2022-11-02T14:48:02;3.05;;;1.75;;
34765;SDS011;20984;43.508;1.504;2022-11-02T14:50:30;5.65;;;2.15;;
34765;SDS011;20984;43.508;1.504;2022-11-02T14:55:50;7.32;;;2.00;;
34765;SDS011;20984;43.508;1.504;2022-11-02T14:58:18;6.03;;;2.03;;
34765;SDS011;20984;43.508;1.504;2022-11-02T15:08:50;6.22;;;1.95;;
34765;SDS011;20984;43.508;1.504;2022-11-02T15:11:42;6.13;;;1.98;;
34765;SDS011;20984;43.508;1.504;2022-11-02T15:14:31;4.22;;;2.28;;
34765;SDS011;20984;43.508;1.504;2022-11-02T15:17:01;8.00;;;2.55;;
34765;SDS011;20984;43.508;1.504;2022-11-02T15:19:43;8.48;;;2.42;;
34765;SDS011;20984;43.508;1.504;2022-11-02T15:22:51;7.95;;;2.40;;
34765;SDS011;20984;43.508;1.504;2022-11-02T15:25:14;6.32;;;2.03;;
34765;SDS011;20984;43.508;1.504;2022-11-02T15:27:45;6.03;;;2.20;;
34765;SDS011;20984;43.508;1.504;2022-11-02T15:30:14;5.28;;;2.03;;
34765;SDS011;20984;43.508;1.504;2022-11-02T15:32:52;6.53;;;2.05;;
34765;SDS011;20984;43.508;1.504;2022-11-02T15:35:24;5.90;;;1.75;;
34765;SDS011;20984;43.508;1.504;2022-11-02T15:37:55;6.60;;;2.05;;
34765;SDS011;20984;43.508;1.504;2022-11-02T15:40:45;3.13;;;1.75;;
34765;SDS011;20984;43.508;1.504;2022-11-02T15:46:44;7.43;;;2.50;;
34765;SDS011;20984;43.508;1.504;2022-11-02T15:54:45;8.50;;;2.97;;
34765;SDS011;20984;43.508;1.504;2022-11-02T16:00:22;12.57;;;3.22;;
34765;SDS011;20984;43.508;1.504;2022-11-02T16:02:58;6.95;;;3.25;;
34765;SDS011;20984;43.508;1.504;2022-11-02T16:05:41;10.07;;;2.50;;
34765;SDS011;20984;43.508;1.504;2022-11-02T16:11:02;4.32;;;2.00;;
34765;SDS011;20984;43.508;1.504;2022-11-02T16:13:31;5.05;;;2.20;;
34765;SDS011;20984;43.508;1.504;2022-11-02T16:16:05;4.78;;;2.50;;
34765;SDS011;20984;43.508;1.504;2022-11-02T16:18:38;2.95;;;1.92;;
34765;SDS011;20984;43.508;1.504;2022-11-02T16:21:05;6.28;;;2.35;;
34765;SDS011;20984;43.508;1.504;2022-11-02T16:23:36;4.78;;;2.28;;
34765;SDS011;20984;43.508;1.504;2022-11-02T16:26:13;3.70;;;2.53;;
34765;SDS011;20984;43.508;1.504;2022-11-02T16:28:56;8.13;;;2.25;;
34765;SDS011;20984;43.508;1.504;2022-11-02T16:31:27;7.30;;;2.15;;
34765;SDS011;20984;43.508;1.504;2022-11-02T16:34:04;3.38;;;2.05;;
34765;SDS011;20984;43.508;1.504;2022-11-02T16:36:41;11.27;;;2.20;;
34765;SDS011;20984;43.508;1.504;2022-11-02T16:39:26;4.82;;;2.42;;
34765;SDS011;20984;43.508;1.504;2022-11-02T16:41:56;6.50;;;2.40;;
34765;SDS011;20984;43.508;1.504;2022-11-02T16:44:25;5.03;;;2.60;;
34765;SDS011;20984;43.508;1.504;2022-11-02T16:49:32;4.63;;;2.20;;
34765;SDS011;20984;43.508;1.504;2022-11-02T16:52:00;7.68;;;2.33;;
34765;SDS011;20984;43.508;1.504;2022-11-02T16:54:41;4.28;;;2.00;;
34765;SDS011;20984;43.508;1.504;2022-11-02T17:00:18;5.23;;;2.43;;
34765;SDS011;20984;43.508;1.504;2022-11-02T17:02:44;6.05;;;2.53;;
34765;SDS011;20984;43.508;1.504;2022-11-02T17:05:15;3.20;;;2.15;;
34765;SDS011;20984;43.508;1.504;2022-11-02T17:10:23;5.50;;;2.30;;
34765;SDS011;20984;43.508;1.504;2022-11-02T17:12:51;12.50;;;2.63;;
34765;SDS011;20984;43.508;1.504;2022-11-02T17:15:23;5.78;;;2.53;;
34765;SDS011;20984;43.508;1.504;2022-11-02T17:23:37;5.95;;;3.33;;
34765;SDS011;20984;43.508;1.504;2022-11-02T17:29:00;7.82;;;3.20;;
34765;SDS011;20984;43.508;1.504;2022-11-02T17:31:31;8.88;;;3.25;;
34765;SDS011;20984;43.508;1.504;2022-11-02T17:34:01;4.43;;;2.33;;
34765;SDS011;20984;43.508;1.504;2022-11-02T17:36:42;3.97;;;2.78;;
34765;SDS011;20984;43.508;1.504;2022-11-02T17:39:12;7.07;;;2.75;;
34765;SDS011;20984;43.508;1.504;2022-11-02T17:41:40;4.22;;;2.85;;